Carol Stream, Illinois
Current Conditions -  °F | °C
As of 11:09 AM on Sunday 23 Nov 2014 (Local Time) from KDPA Reporting Station
Overcast Overcast  
Wind Chill: 50°   Ceiling: 1400
Heat Index: 50°   Visibility: 9mi
Dew Point: 46°   Wind: 10mph
Humidity: 86%   Direction: 170°S
Pressure: 29.65"   Gusts: NA
Location:  41.92°N, 88.12°W
Report Text: KDPA 231709Z 17009KT 9SM OVC014 10/08 A2965 RMK AO2 T01000078
Loading
Personal Weather Stations






























Interactive Weather Map New forecast layout! Learn more

10-Day Weather Forecast

Advertisements
Track Severe Weather on mobile